createdAt,value
2023-03-06T00:00:53.104Z,3.47
2023-03-06T00:04:19.212Z,4.00
2023-03-06T00:07:45.338Z,2.60
2023-03-06T00:11:14.816Z,0.99
2023-03-06T00:14:40.565Z,-0.12
2023-03-06T00:18:07.075Z,-0.91
2023-03-06T00:21:32.948Z,-1.54
2023-03-06T00:25:00.916Z,-2.07
2023-03-06T00:28:30.988Z,-2.53
2023-03-06T00:31:56.610Z,-2.93
2023-03-06T00:35:22.250Z,-3.28
2023-03-06T00:38:50.074Z,-3.59
2023-03-06T00:42:16.327Z,-3.87
2023-03-06T00:45:42.070Z,-3.77
2023-03-06T00:49:07.797Z,-1.61
2023-03-06T00:52:33.814Z,0.41
2023-03-06T00:56:01.769Z,1.78
2023-03-06T00:59:28.724Z,2.72
2023-03-06T01:02:56.659Z,3.54
2023-03-06T01:06:22.650Z,2.88
2023-03-06T01:09:48.202Z,1.20
2023-03-06T01:13:15.691Z,0.03
2023-03-06T01:16:41.521Z,-0.77
2023-03-06T01:20:08.203Z,-1.35
2023-03-06T01:23:36.089Z,-1.83
2023-03-06T01:27:02.900Z,-2.26
2023-03-06T01:30:30.775Z,-2.64
2023-03-06T01:33:56.503Z,-2.95
2023-03-06T01:37:22.249Z,-3.20
2023-03-06T01:40:48.080Z,-3.42
2023-03-06T01:44:14.559Z,-3.60
2023-03-06T01:47:41.040Z,-3.76
2023-03-06T01:51:07.838Z,-3.88
2023-03-06T01:54:39.972Z,-2.46
2023-03-06T01:58:08.283Z,-0.19
2023-03-06T02:01:34.466Z,1.47
2023-03-06T02:05:02.227Z,2.62
2023-03-06T02:08:28.327Z,3.56
2023-03-06T02:11:54.081Z,4.36
2023-03-06T02:15:21.835Z,3.60
2023-03-06T02:18:47.989Z,1.95
2023-03-06T02:22:15.947Z,0.84
2023-03-06T02:25:44.829Z,0.05
2023-03-06T02:29:11.032Z,-0.57
2023-03-06T02:32:37.202Z,-1.08
2023-03-06T02:36:04.882Z,-1.50
2023-03-06T02:39:33.447Z,-1.86
2023-03-06T02:42:59.824Z,-1.80
2023-03-06T02:46:27.032Z,0.20
2023-03-06T02:49:53.271Z,2.09
2023-03-06T02:53:20.206Z,3.40
2023-03-06T02:56:47.320Z,4.45
2023-03-06T03:00:14.557Z,5.20
2023-03-06T03:03:40.724Z,4.04
2023-03-06T03:07:06.955Z,2.42
2023-03-06T03:10:33.884Z,1.33
2023-03-06T03:14:02.882Z,0.54
2023-03-06T03:17:35.699Z,-0.10
2023-03-06T03:21:02.965Z,-0.64
2023-03-06T03:24:30.345Z,-1.07
2023-03-06T03:27:56.983Z,-1.42
2023-03-06T03:31:24.779Z,-1.70
2023-03-06T03:34:50.660Z,-1.29
2023-03-06T03:38:16.563Z,0.95
2023-03-06T03:41:42.701Z,2.69
2023-03-06T03:45:10.204Z,3.89
2023-03-06T03:48:27.303Z,4.78
2023-03-06T03:51:55.709Z,5.37
2023-03-06T03:55:23.153Z,4.11
2023-03-06T03:58:52.215Z,2.64
2023-03-06T04:02:27.931Z,1.65
2023-03-06T04:06:04.594Z,0.90
2023-03-06T04:09:31.818Z,0.35
2023-03-06T04:12:58.523Z,-0.11
2023-03-06T04:16:25.218Z,-0.38
2023-03-06T04:19:51.671Z,1.23
2023-03-06T04:23:18.046Z,3.21
2023-03-06T04:26:52.161Z,4.57
2023-03-06T04:30:29.727Z,5.46
2023-03-06T04:33:58.118Z,6.00
2023-03-06T04:37:29.670Z,4.44
2023-03-06T04:40:59.058Z,2.98
2023-03-06T04:44:25.213Z,2.05
2023-03-06T04:47:53.854Z,1.35
2023-03-06T04:51:41.598Z,0.78
2023-03-06T04:55:14.135Z,0.38
2023-03-06T04:58:40.453Z,1.97
2023-03-06T05:02:26.561Z,3.95
2023-03-06T05:05:55.805Z,5.18
2023-03-06T05:09:23.768Z,6.03
2023-03-06T05:12:53.991Z,6.57
2023-03-06T05:16:45.070Z,5.19
2023-03-06T05:20:12.811Z,3.47
2023-03-06T05:23:40.133Z,2.46
2023-03-06T05:27:27.363Z,1.71
2023-03-06T05:31:22.631Z,1.26
2023-03-06T05:34:49.347Z,3.09
2023-03-06T05:38:37.077Z,4.73
2023-03-06T05:42:04.465Z,5.86
2023-03-06T05:45:34.177Z,6.53
2023-03-06T05:48:59.995Z,5.35
2023-03-06T05:52:28.847Z,3.81
2023-03-06T05:56:00.074Z,2.84
2023-03-06T05:59:46.509Z,2.12
2023-03-06T06:03:18.451Z,1.62
2023-03-06T06:07:24.673Z,1.10
2023-03-06T06:10:53.519Z,0.75
2023-03-06T06:14:20.284Z,0.46
2023-03-06T06:18:08.461Z,0.20
2023-03-06T06:21:35.991Z,0.02
2023-03-06T06:25:23.705Z,-0.05
2023-03-06T06:28:51.395Z,1.73
2023-03-06T06:32:17.656Z,3.78
2023-03-06T06:35:44.082Z,5.01
2023-03-06T06:39:12.855Z,5.89
2023-03-06T06:42:40.381Z,6.60
2023-03-06T06:46:38.831Z,5.21
2023-03-06T06:49:53.536Z,3.60
2023-03-06T06:53:19.395Z,2.66
2023-03-06T06:56:45.362Z,1.93
2023-03-06T07:00:14.465Z,1.40
2023-03-06T07:03:40.725Z,2.28
2023-03-06T07:07:06.465Z,4.34
2023-03-06T07:10:32.460Z,5.66
2023-03-06T07:13:58.425Z,6.67
2023-03-06T07:17:24.341Z,6.94
2023-03-06T07:20:50.203Z,5.23
2023-03-06T07:24:16.659Z,3.89
2023-03-06T07:27:44.324Z,2.96
2023-03-06T07:31:08.704Z,3.27
2023-03-06T07:35:27.205Z,4.93
2023-03-06T07:39:02.677Z,6.48
2023-03-06T07:42:29.468Z,5.97
2023-03-06T07:45:58.968Z,4.23
2023-03-06T07:49:24.990Z,3.40
2023-03-06T07:52:52.844Z,4.83
2023-03-06T07:56:18.640Z,6.20
2023-03-06T07:59:44.397Z,6.62
2023-03-06T08:03:11.421Z,5.19
2023-03-06T08:06:37.165Z,3.71
2023-03-06T08:10:05.191Z,2.83
2023-03-06T08:13:31.017Z,2.96
2023-03-06T08:16:57.423Z,4.84
2023-03-06T08:20:23.458Z,6.17
2023-03-06T08:23:49.162Z,6.80
2023-03-06T08:27:15.064Z,7.26
2023-03-06T08:30:41.056Z,6.13
2023-03-06T08:34:07.619Z,4.65
2023-03-06T08:37:33.487Z,4.85
2023-03-06T08:40:59.441Z,6.72
2023-03-06T08:45:12.724Z,7.85
2023-03-06T08:48:12.077Z,7.44
2023-03-06T08:51:37.886Z,6.07
2023-03-06T08:55:04.143Z,5.17
2023-03-06T08:58:30.607Z,4.57
2023-03-06T09:01:56.276Z,4.23
2023-03-06T09:05:22.374Z,5.91
2023-03-06T09:08:56.572Z,7.69
2023-03-06T09:12:24.671Z,7.14
2023-03-06T09:15:50.579Z,6.07
2023-03-06T09:19:16.261Z,5.23
2023-03-06T09:22:46.152Z,4.55
2023-03-06T09:26:12.224Z,4.13
2023-03-06T09:29:37.771Z,3.91
2023-03-06T09:33:03.394Z,3.75
2023-03-06T09:36:29.389Z,3.75
2023-03-06T09:39:55.280Z,4.96
2023-03-06T09:43:26.666Z,7.07
2023-03-06T09:47:14.864Z,8.54
2023-03-06T09:50:45.621Z,7.97
2023-03-06T09:54:13.328Z,7.26
2023-03-06T09:57:42.374Z,6.98
2023-03-06T10:01:13.133Z,6.97
2023-03-06T10:04:41.501Z,7.22
2023-03-06T10:08:13.341Z,9.02
2023-03-06T10:11:40.492Z,9.66
2023-03-06T10:15:13.169Z,8.84
2023-03-06T10:18:39.227Z,8.41
2023-03-06T10:22:07.826Z,8.10
2023-03-06T10:25:37.973Z,7.90
2023-03-06T10:29:17.432Z,7.80
2023-03-06T10:32:49.477Z,7.65
2023-03-06T10:36:16.266Z,7.55
2023-03-06T10:39:41.952Z,7.39
2023-03-06T10:43:12.388Z,7.16
2023-03-06T10:46:39.384Z,7.17
2023-03-06T10:50:08.419Z,8.74
2023-03-06T10:53:34.128Z,9.37
2023-03-06T10:57:09.430Z,8.60
2023-03-06T11:00:36.265Z,8.17
2023-03-06T11:04:15.106Z,7.89
2023-03-06T11:07:54.753Z,8.52
2023-03-06T11:11:36.801Z,10.43
2023-03-06T11:15:21.059Z,10.64
2023-03-06T11:18:56.485Z,9.26
2023-03-06T11:22:22.216Z,8.21
2023-03-06T11:25:50.467Z,7.67
2023-03-06T11:29:29.376Z,7.21
2023-03-06T11:32:58.563Z,6.75
2023-03-06T11:36:27.385Z,6.50
2023-03-06T11:39:58.084Z,6.05
2023-03-06T11:43:26.439Z,5.73
2023-03-06T11:46:54.770Z,5.30
2023-03-06T11:50:23.639Z,5.78
2023-03-06T11:53:49.449Z,6.69
2023-03-06T11:57:16.671Z,5.82
2023-03-06T12:00:49.662Z,5.07
2023-03-06T12:04:32.200Z,5.76
2023-03-06T12:08:03.331Z,6.07
2023-03-06T12:11:33.377Z,6.26
2023-03-06T12:15:08.374Z,5.47
2023-03-06T12:18:46.057Z,6.34
2023-03-06T12:22:21.439Z,6.31
2023-03-06T12:25:49.679Z,5.53
2023-03-06T12:29:23.926Z,6.23
2023-03-06T12:32:53.629Z,6.05
2023-03-06T12:36:30.872Z,5.24
2023-03-06T12:40:23.904Z,5.93
2023-03-06T12:43:55.252Z,6.71
2023-03-06T12:47:17.068Z,6.24
2023-03-06T12:50:28.028Z,5.43
2023-03-06T12:53:37.242Z,5.56
2023-03-06T12:56:55.143Z,6.63
2023-03-06T13:00:40.522Z,6.20
2023-03-06T13:04:01.527Z,5.06
2023-03-06T13:07:28.982Z,5.83
2023-03-06T13:10:40.040Z,6.38
2023-03-06T13:14:19.475Z,5.33
2023-03-06T13:17:45.230Z,5.58
2023-03-06T13:21:25.491Z,6.11
2023-03-06T13:24:43.354Z,5.16
2023-03-06T13:28:03.328Z,4.99
2023-03-06T13:31:24.963Z,5.49
2023-03-06T13:34:47.873Z,5.73
2023-03-06T13:38:30.492Z,6.17
2023-03-06T13:41:58.215Z,5.25
2023-03-06T13:45:26.872Z,5.77
2023-03-06T13:48:45.970Z,6.01
2023-03-06T13:52:09.532Z,4.81
2023-03-06T13:55:27.625Z,4.80
2023-03-06T13:59:04.053Z,5.39
2023-03-06T14:02:42.124Z,5.26
2023-03-06T14:05:55.367Z,4.81
2023-03-06T14:09:04.956Z,5.61
2023-03-06T14:12:25.007Z,6.13
2023-03-06T14:15:52.205Z,6.31
2023-03-06T14:19:18.906Z,5.07
2023-03-06T14:22:37.138Z,5.38
2023-03-06T14:25:46.291Z,5.90
2023-03-06T14:29:20.307Z,4.79
2023-03-06T14:32:49.956Z,4.54
2023-03-06T14:36:17.527Z,5.08
2023-03-06T14:39:45.280Z,5.22
2023-03-06T14:43:14.030Z,5.64
2023-03-06T14:46:39.869Z,5.98
2023-03-06T14:50:23.320Z,4.69
2023-03-06T14:53:42.459Z,4.85
2023-03-06T14:57:02.668Z,5.62
2023-03-06T15:00:34.636Z,4.74
2023-03-06T15:04:01.372Z,4.49
2023-03-06T15:07:23.488Z,5.72
2023-03-06T15:10:30.612Z,5.65
2023-03-06T15:14:03.114Z,4.70
2023-03-06T15:17:29.706Z,5.10
2023-03-06T15:20:53.653Z,6.16
2023-03-06T15:24:29.774Z,5.41
2023-03-06T15:27:50.524Z,4.39
2023-03-06T15:31:22.010Z,5.60
2023-03-06T15:34:49.767Z,5.88
2023-03-06T15:38:34.825Z,4.53
2023-03-06T15:41:59.682Z,3.95
2023-03-06T15:45:36.173Z,5.56
2023-03-06T15:48:51.864Z,5.95
2023-03-06T15:52:21.463Z,4.41
2023-03-06T15:55:37.857Z,4.36
2023-03-06T15:58:53.555Z,5.78
2023-03-06T16:02:14.887Z,5.12
2023-03-06T16:05:31.103Z,4.00
2023-03-06T16:08:55.653Z,4.87
2023-03-06T16:12:01.274Z,5.85
2023-03-06T16:15:20.621Z,5.14
2023-03-06T16:18:37.805Z,4.11
2023-03-06T16:21:44.207Z,3.39
2023-03-06T16:24:52.590Z,2.83
2023-03-06T16:28:11.209Z,2.40
2023-03-06T16:31:28.288Z,2.82
2023-03-06T16:34:34.008Z,4.72
2023-03-06T16:37:42.604Z,6.14
2023-03-06T16:40:59.348Z,7.17
2023-03-06T16:44:11.796Z,6.85
2023-03-06T16:47:27.898Z,5.20
2023-03-06T16:50:43.769Z,4.04
2023-03-06T16:53:55.364Z,3.20
2023-03-06T16:57:04.217Z,2.46
2023-03-06T17:00:11.312Z,1.90
2023-03-06T17:03:20.038Z,1.46
2023-03-06T17:06:25.723Z,2.27
2023-03-06T17:09:31.613Z,3.88
2023-03-06T17:12:37.262Z,5.04
2023-03-06T17:15:42.828Z,5.64
2023-03-06T17:18:50.979Z,5.23
2023-03-06T17:21:56.364Z,3.87
2023-03-06T17:25:14.687Z,2.70
2023-03-06T17:28:20.131Z,1.91
2023-03-06T17:31:47.259Z,1.25
2023-03-06T17:34:53.099Z,0.79
2023-03-06T17:38:03.621Z,0.40
2023-03-06T17:41:18.507Z,0.05
2023-03-06T17:44:27.137Z,-0.25
2023-03-06T17:47:32.834Z,-0.49
2023-03-06T17:50:38.282Z,-0.72
2023-03-06T17:53:43.632Z,-0.94
2023-03-06T17:56:52.234Z,-1.13
2023-03-06T17:59:57.859Z,-1.31
2023-03-06T18:03:03.426Z,-1.10
2023-03-06T18:06:10.470Z,0.62
2023-03-06T18:09:15.958Z,2.49
2023-03-06T18:12:33.189Z,3.88
2023-03-06T18:15:41.623Z,4.77
2023-03-06T18:18:52.221Z,5.38
2023-03-06T18:22:08.527Z,5.97
2023-03-06T18:25:14.452Z,5.55
2023-03-06T18:28:20.109Z,4.02
2023-03-06T18:31:26.713Z,2.86
2023-03-06T18:34:32.227Z,2.02
2023-03-06T18:37:37.965Z,1.34
2023-03-06T18:40:56.780Z,0.74
2023-03-06T18:44:14.691Z,0.24
2023-03-06T18:47:20.107Z,-0.17
2023-03-06T18:50:25.554Z,-0.53
2023-03-06T18:53:30.959Z,-0.85
2023-03-06T18:56:36.586Z,-1.14
2023-03-06T18:59:42.017Z,-1.40
2023-03-06T19:02:50.469Z,-1.62
2023-03-06T19:11:04.834Z,-2.12
2023-03-06T19:14:18.062Z,-1.75
2023-03-06T19:17:25.015Z,0.24
2023-03-06T19:20:30.503Z,1.88
2023-03-06T19:23:35.954Z,3.06
2023-03-06T19:26:55.177Z,4.10
2023-03-06T19:30:00.699Z,4.78
2023-03-06T19:33:09.094Z,5.32
2023-03-06T19:36:15.429Z,4.80
2023-03-06T19:39:22.401Z,3.15
2023-03-06T19:42:47.997Z,1.84
2023-03-06T19:46:00.663Z,1.00
2023-03-06T19:49:11.827Z,0.96
2023-03-06T19:52:18.207Z,2.51
2023-03-06T19:55:28.596Z,3.88
2023-03-06T19:58:34.206Z,4.76
2023-03-06T20:01:39.761Z,5.08
2023-03-06T20:04:45.480Z,3.67
2023-03-06T20:07:51.514Z,2.26
2023-03-06T20:10:59.851Z,1.25
2023-03-06T20:14:05.881Z,0.50
2023-03-06T20:17:11.288Z,-0.13
2023-03-06T20:20:16.853Z,-0.67
2023-03-06T20:23:22.294Z,-1.13
2023-03-06T20:26:28.396Z,-1.55
2023-03-06T20:29:33.983Z,-1.92
2023-03-06T20:32:39.853Z,-2.27
2023-03-06T20:35:48.228Z,-2.59
2023-03-06T20:38:56.969Z,-2.88
2023-03-06T20:42:02.461Z,-3.12
2023-03-06T20:45:08.873Z,-3.27
2023-03-06T20:48:14.203Z,-2.03
2023-03-06T20:51:20.658Z,-0.30
2023-03-06T20:54:26.316Z,0.88
2023-03-06T20:57:31.882Z,2.03
2023-03-06T21:00:37.426Z,2.99
2023-03-06T21:03:42.859Z,3.74
2023-03-06T21:06:48.250Z,3.54
2023-03-06T21:09:53.784Z,1.99
2023-03-06T21:12:59.539Z,0.78
2023-03-06T21:16:09.759Z,-0.11
2023-03-06T21:19:15.288Z,-0.78
2023-03-06T21:22:20.980Z,-1.36
2023-03-06T21:25:26.455Z,-1.88
2023-03-06T21:28:31.956Z,-2.36
2023-03-06T21:31:37.450Z,-2.80
2023-03-06T21:34:52.293Z,-3.18
2023-03-06T21:37:57.935Z,-3.50
2023-03-06T21:41:08.949Z,-3.77
2023-03-06T21:44:14.477Z,-4.00
2023-03-06T21:47:20.012Z,-4.19
2023-03-06T21:50:28.782Z,-3.46
2023-03-06T21:53:37.031Z,-1.31
2023-03-06T21:56:44.826Z,0.42
2023-03-06T21:59:55.713Z,1.60
2023-03-06T22:03:04.869Z,2.51
2023-03-06T22:06:14.226Z,3.23
2023-03-06T22:09:20.067Z,3.09
2023-03-06T22:12:27.852Z,1.44
2023-03-06T22:15:35.504Z,0.15
2023-03-06T22:18:46.637Z,-0.75
2023-03-06T22:21:56.675Z,-1.48
2023-03-06T22:25:06.043Z,-2.09
2023-03-06T22:28:31.980Z,-2.70
2023-03-06T22:31:39.898Z,-3.16
2023-03-06T22:34:47.956Z,-3.58
2023-03-06T22:38:04.687Z,-3.95
2023-03-06T22:41:13.843Z,-4.25
2023-03-06T22:44:20.267Z,-4.50
2023-03-06T22:47:25.638Z,-4.51
2023-03-06T22:50:31.119Z,-2.85
2023-03-06T22:53:39.546Z,-0.93
2023-03-06T22:56:44.923Z,0.36
2023-03-06T22:59:50.484Z,1.41
2023-03-06T23:02:56.030Z,2.32
2023-03-06T23:06:01.403Z,3.15
2023-03-06T23:09:08.000Z,3.80
2023-03-06T23:12:31.863Z,4.37
2023-03-06T23:15:56.134Z,4.79
2023-03-06T23:19:20.072Z,5.05
2023-03-06T23:22:44.272Z,5.01
2023-03-06T23:26:09.322Z,3.26
2023-03-06T23:29:14.916Z,1.67
2023-03-06T23:32:20.588Z,0.58
2023-03-06T23:35:26.128Z,-0.24
2023-03-06T23:38:35.146Z,-0.91
2023-03-06T23:41:40.992Z,-1.46
2023-03-06T23:44:50.087Z,-0.88
2023-03-06T23:47:57.830Z,0.84
2023-03-06T23:51:05.794Z,2.01
2023-03-06T23:54:11.595Z,2.62
2023-03-06T23:57:17.525Z,3.09
